createdAt,value
2023-05-09T00:00:52.119Z,7.60
2023-05-09T00:03:22.519Z,8.98
2023-05-09T00:05:52.120Z,8.55
2023-05-09T00:08:23.404Z,8.27
2023-05-09T00:10:52.346Z,8.07
2023-05-09T00:13:21.239Z,8.95
2023-05-09T00:15:50.761Z,9.68
2023-05-09T00:18:19.457Z,10.30
2023-05-09T00:20:49.640Z,10.63
2023-05-09T00:23:18.394Z,10.27
2023-05-09T00:25:47.700Z,9.70
2023-05-09T00:28:16.434Z,10.13
2023-05-09T00:30:45.242Z,10.18
2023-05-09T00:33:13.940Z,9.43
2023-05-09T00:35:42.745Z,9.75
2023-05-09T00:38:12.998Z,8.82
2023-05-09T00:40:41.689Z,7.53
2023-05-09T00:43:10.362Z,9.55
2023-05-09T00:45:39.184Z,8.07
2023-05-09T00:48:11.454Z,7.93
2023-05-09T00:50:40.244Z,8.77
2023-05-09T00:53:09.936Z,7.72
2023-05-09T00:55:41.553Z,9.45
2023-05-09T00:58:10.475Z,8.67
2023-05-09T01:00:39.359Z,8.95
2023-05-09T01:03:11.664Z,7.68
2023-05-09T01:05:59.912Z,7.72
2023-05-09T01:08:48.675Z,6.30
2023-05-09T01:11:33.754Z,7.93
2023-05-09T01:14:16.831Z,7.22
2023-05-09T01:17:06.901Z,7.18
2023-05-09T01:20:11.187Z,7.75
2023-05-09T01:22:46.477Z,7.38
2023-05-09T01:25:58.924Z,7.57
2023-05-09T01:29:14.971Z,8.30
2023-05-09T01:31:49.195Z,8.45
2023-05-09T01:34:19.750Z,9.23
2023-05-09T01:36:52.438Z,10.35
2023-05-09T01:39:23.515Z,9.00
2023-05-09T01:41:56.591Z,9.15
2023-05-09T01:44:32.768Z,8.65
2023-05-09T01:47:06.409Z,8.25
2023-05-09T01:49:57.473Z,8.82
2023-05-09T01:52:28.072Z,9.23
2023-05-09T01:54:57.750Z,8.63
2023-05-09T01:57:28.447Z,8.98
2023-05-09T02:00:00.504Z,7.75
2023-05-09T02:02:30.111Z,7.60
2023-05-09T02:04:59.894Z,6.23
2023-05-09T02:07:31.287Z,7.95
2023-05-09T02:10:02.133Z,6.53
2023-05-09T02:12:36.322Z,7.40
2023-05-09T02:15:09.019Z,6.88
2023-05-09T02:17:42.542Z,7.20
2023-05-09T02:20:13.479Z,7.43
2023-05-09T02:22:44.661Z,7.88
2023-05-09T02:25:16.650Z,7.85
2023-05-09T02:27:47.992Z,7.53
2023-05-09T02:30:25.480Z,6.47
2023-05-09T02:33:02.462Z,7.03
2023-05-09T02:35:31.658Z,6.18
2023-05-09T02:38:01.871Z,5.70
2023-05-09T02:40:32.399Z,7.57
2023-05-09T02:43:01.134Z,6.90
2023-05-09T02:45:32.263Z,5.72
2023-05-09T02:48:01.188Z,5.95
2023-05-09T02:50:29.962Z,6.65
2023-05-09T02:52:58.928Z,6.30
2023-05-09T02:55:28.539Z,6.07
2023-05-09T02:58:09.289Z,6.20
2023-05-09T03:00:43.836Z,4.75
2023-05-09T03:03:14.389Z,5.25
2023-05-09T03:05:43.385Z,4.82
2023-05-09T03:08:12.182Z,5.03
2023-05-09T03:10:40.842Z,5.32
2023-05-09T03:13:10.914Z,5.18
2023-05-09T03:15:39.646Z,4.68
2023-05-09T03:18:11.932Z,5.07
2023-05-09T03:20:40.807Z,4.20
2023-05-09T03:23:10.162Z,5.55
2023-05-09T03:25:39.352Z,5.00
2023-05-09T03:28:08.280Z,5.68
2023-05-09T03:30:37.180Z,4.32
2023-05-09T03:33:11.139Z,5.00
2023-05-09T03:35:40.202Z,5.45
2023-05-09T03:38:10.051Z,4.78
2023-05-09T03:40:39.195Z,5.15
2023-05-09T03:43:11.180Z,4.20
2023-05-09T03:45:40.022Z,3.97
2023-05-09T03:48:12.655Z,4.43
2023-05-09T03:50:49.934Z,4.30
2023-05-09T03:53:21.627Z,4.15
2023-05-09T03:56:19.959Z,4.45
2023-05-09T03:58:52.769Z,4.60
2023-05-09T04:01:25.983Z,4.10
2023-05-09T04:03:58.667Z,4.18
2023-05-09T04:06:30.151Z,3.72
2023-05-09T04:09:02.639Z,3.88
2023-05-09T04:11:35.573Z,3.93
2023-05-09T04:14:09.684Z,4.32
2023-05-09T04:16:39.691Z,2.65
2023-05-09T04:19:09.864Z,2.88
2023-05-09T04:21:38.761Z,2.63
2023-05-09T04:24:11.897Z,2.70
2023-05-09T04:26:48.134Z,2.42
2023-05-09T04:29:21.861Z,2.72
2023-05-09T04:31:55.484Z,2.58
2023-05-09T04:34:29.901Z,2.42
2023-05-09T04:37:05.036Z,2.20
2023-05-09T04:39:34.118Z,2.67
2023-05-09T04:42:16.042Z,2.20
2023-05-09T04:44:45.779Z,2.42
2023-05-09T04:47:48.310Z,2.50
2023-05-09T04:50:19.660Z,2.23
2023-05-09T04:52:48.988Z,2.38
2023-05-09T04:55:20.204Z,2.80
2023-05-09T04:57:52.069Z,2.15
2023-05-09T05:00:22.209Z,2.05
2023-05-09T05:02:55.411Z,1.40
2023-05-09T05:05:30.893Z,1.30
2023-05-09T05:08:00.654Z,1.05
2023-05-09T05:10:35.733Z,1.00
2023-05-09T05:13:10.258Z,0.88
2023-05-09T05:15:43.090Z,1.00
2023-05-09T05:18:12.588Z,0.93
2023-05-09T05:20:43.973Z,0.88
2023-05-09T05:23:12.777Z,1.05
2023-05-09T05:25:41.678Z,1.27
2023-05-09T05:29:32.023Z,1.00
2023-05-09T05:32:00.979Z,1.08
2023-05-09T05:34:29.940Z,1.10
2023-05-09T05:37:00.323Z,1.58
2023-05-09T05:39:29.365Z,1.33
2023-05-09T05:41:58.229Z,1.10
2023-05-09T05:44:29.578Z,1.52
2023-05-09T05:46:59.375Z,1.02
2023-05-09T05:49:29.382Z,1.20
2023-05-09T05:52:04.083Z,1.00
2023-05-09T05:54:33.480Z,0.90
2023-05-09T05:57:02.405Z,0.80
2023-05-09T05:59:31.910Z,0.88
2023-05-09T06:02:00.915Z,0.90
2023-05-09T06:04:41.590Z,0.82
2023-05-09T06:07:27.175Z,0.90
2023-05-09T06:09:56.047Z,0.65
2023-05-09T06:12:31.888Z,0.68
2023-05-09T06:15:05.151Z,0.60
2023-05-09T06:17:38.602Z,0.50
2023-05-09T06:20:09.325Z,1.30
2023-05-09T06:22:39.752Z,0.50
2023-05-09T06:25:10.590Z,0.80
2023-05-09T06:27:39.831Z,0.70
2023-05-09T06:30:24.791Z,0.70
2023-05-09T06:32:55.729Z,0.83
2023-05-09T06:35:25.293Z,0.55
2023-05-09T06:37:55.533Z,0.70
2023-05-09T06:40:24.498Z,0.88
2023-05-09T06:42:54.081Z,0.65
2023-05-09T06:45:23.045Z,1.10
2023-05-09T06:47:51.805Z,0.68
2023-05-09T06:50:20.926Z,0.68
2023-05-09T06:52:49.685Z,0.80
2023-05-09T06:55:20.087Z,1.02
2023-05-09T06:57:49.926Z,0.77
2023-05-09T07:00:46.531Z,1.10
2023-05-09T07:03:23.318Z,0.77
2023-05-09T07:06:03.751Z,0.80
2023-05-09T07:08:33.351Z,0.73
2023-05-09T07:11:03.673Z,0.50
2023-05-09T07:13:32.478Z,1.00
2023-05-09T07:16:01.510Z,0.75
2023-05-09T07:18:31.048Z,1.02
2023-05-09T07:21:00.118Z,0.60
2023-05-09T07:23:29.011Z,0.40
2023-05-09T07:25:59.157Z,0.80
2023-05-09T07:28:29.564Z,0.90
2023-05-09T07:30:58.392Z,0.50
2023-05-09T07:33:27.066Z,0.70
2023-05-09T07:35:56.128Z,0.87
2023-05-09T07:38:27.657Z,0.90
2023-05-09T07:40:57.479Z,0.70
2023-05-09T07:43:26.399Z,1.30
2023-05-09T07:45:56.815Z,0.85
2023-05-09T07:48:25.724Z,0.90
2023-05-09T07:50:54.549Z,1.10
2023-05-09T07:53:23.545Z,0.52
2023-05-09T07:55:52.618Z,0.80
2023-05-09T07:58:22.042Z,0.70
2023-05-09T08:00:50.879Z,0.90
2023-05-09T08:03:37.104Z,1.17
2023-05-09T08:06:09.771Z,0.80
2023-05-09T08:09:05.043Z,0.90
2023-05-09T08:11:37.745Z,0.63
2023-05-09T08:14:07.675Z,0.70
2023-05-09T08:16:39.817Z,0.85
2023-05-09T08:19:13.112Z,1.00
2023-05-09T08:21:56.988Z,0.90
2023-05-09T08:24:25.903Z,1.05
2023-05-09T08:26:54.845Z,0.90
2023-05-09T08:29:25.532Z,0.50
2023-05-09T08:31:55.832Z,0.75
2023-05-09T08:34:26.414Z,0.60
2023-05-09T08:36:55.510Z,0.85
2023-05-09T08:39:24.399Z,0.60
2023-05-09T08:41:58.966Z,1.15
2023-05-09T08:44:28.696Z,1.00
2023-05-09T08:47:01.823Z,0.82
2023-05-09T08:49:33.509Z,1.08
2023-05-09T08:52:02.981Z,1.10
2023-05-09T08:54:31.934Z,1.00
2023-05-09T08:57:04.530Z,1.08
2023-05-09T09:00:00.778Z,1.15
2023-05-09T09:02:30.343Z,0.82
2023-05-09T09:05:39.506Z,1.13
2023-05-09T09:08:16.134Z,1.15
2023-05-09T09:10:47.743Z,1.10
2023-05-09T09:13:37.135Z,2.30
2023-05-09T09:16:08.300Z,1.25
2023-05-09T09:18:39.529Z,0.87
2023-05-09T09:21:13.859Z,0.98
2023-05-09T09:23:44.988Z,0.93
2023-05-09T09:26:13.707Z,1.08
2023-05-09T09:28:43.332Z,0.80
2023-05-09T09:31:26.905Z,0.77
2023-05-09T09:34:01.753Z,0.88
2023-05-09T09:36:36.712Z,1.17
2023-05-09T09:39:07.250Z,0.85
2023-05-09T09:41:37.743Z,1.17
2023-05-09T09:44:11.563Z,0.90
2023-05-09T09:46:50.863Z,0.90
2023-05-09T09:49:22.426Z,0.95
2023-05-09T09:51:55.367Z,0.60
2023-05-09T09:54:27.796Z,1.20
2023-05-09T09:56:57.326Z,1.17
2023-05-09T09:59:28.112Z,0.98
2023-05-09T10:02:06.086Z,1.20
2023-05-09T10:04:41.620Z,0.88
2023-05-09T10:07:15.017Z,0.70
2023-05-09T10:09:44.176Z,0.80
2023-05-09T10:12:18.041Z,1.45
2023-05-09T10:14:48.645Z,0.73
2023-05-09T10:17:19.603Z,1.75
2023-05-09T10:19:52.288Z,1.00
2023-05-09T10:22:23.412Z,0.90
2023-05-09T10:25:03.952Z,0.88
2023-05-09T10:27:37.719Z,0.70
2023-05-09T10:30:11.247Z,0.90
2023-05-09T10:32:50.591Z,0.82
2023-05-09T10:35:21.813Z,0.90
2023-05-09T10:37:53.458Z,1.00
2023-05-09T10:40:22.877Z,1.08
2023-05-09T10:42:54.630Z,0.75
2023-05-09T10:45:25.597Z,0.93
2023-05-09T10:47:57.657Z,1.00
2023-05-09T10:50:27.594Z,1.50
2023-05-09T10:53:14.489Z,1.10
2023-05-09T10:55:53.638Z,1.23
2023-05-09T10:58:30.120Z,1.20
2023-05-09T11:01:00.806Z,0.90
2023-05-09T11:03:51.509Z,1.10
2023-05-09T11:06:49.028Z,1.10
2023-05-09T11:09:38.786Z,1.20
2023-05-09T11:12:14.287Z,0.90
2023-05-09T11:14:45.832Z,1.10
2023-05-09T11:17:32.903Z,1.00
2023-05-09T11:20:14.306Z,0.98
2023-05-09T11:22:48.318Z,0.80
2023-05-09T11:25:28.601Z,1.40
2023-05-09T11:28:13.752Z,1.03
2023-05-09T11:30:44.340Z,1.30
2023-05-09T11:33:24.811Z,1.10
2023-05-09T11:36:20.001Z,0.88
2023-05-09T11:38:49.932Z,1.30
2023-05-09T11:41:19.987Z,1.20
2023-05-09T11:43:54.167Z,1.58
2023-05-09T11:46:34.787Z,1.13
2023-05-09T11:49:12.015Z,1.38
2023-05-09T11:51:41.616Z,1.60
2023-05-09T11:54:15.217Z,1.30
2023-05-09T11:56:46.548Z,1.30
2023-05-09T11:59:15.948Z,1.45
2023-05-09T12:01:44.702Z,1.65
2023-05-09T12:04:14.734Z,1.30
2023-05-09T12:06:49.545Z,1.20
2023-05-09T12:09:20.115Z,2.00
2023-05-09T12:11:53.811Z,1.10
2023-05-09T12:14:33.139Z,1.38
2023-05-09T12:17:02.856Z,1.15
2023-05-09T12:19:31.621Z,1.20
2023-05-09T12:22:02.304Z,1.23
2023-05-09T12:24:32.419Z,1.15
2023-05-09T12:27:03.688Z,1.02
2023-05-09T12:29:34.702Z,1.70
2023-05-09T12:32:04.682Z,1.57
2023-05-09T12:34:36.535Z,1.02
2023-05-09T12:37:17.487Z,1.30
2023-05-09T12:40:02.116Z,0.90
2023-05-09T12:42:36.601Z,1.20
2023-05-09T12:45:09.506Z,1.40
2023-05-09T12:47:39.716Z,1.70
2023-05-09T12:50:12.213Z,1.40
2023-05-09T12:52:58.530Z,1.58
2023-05-09T12:55:31.807Z,1.45
2023-05-09T12:58:04.522Z,1.63
2023-05-09T13:00:45.462Z,1.27
2023-05-09T13:03:26.290Z,1.30
2023-05-09T13:06:05.074Z,1.48
2023-05-09T13:08:42.051Z,1.52
2023-05-09T13:11:16.606Z,1.00
2023-05-09T13:13:47.505Z,0.95
2023-05-09T13:16:18.373Z,1.15
2023-05-09T13:18:48.869Z,0.75
2023-05-09T13:21:19.467Z,0.95
2023-05-09T13:23:50.146Z,1.70
2023-05-09T13:26:18.911Z,0.95
2023-05-09T13:28:49.140Z,1.25
2023-05-09T13:31:18.774Z,1.23
2023-05-09T13:33:49.325Z,2.03
2023-05-09T13:36:20.405Z,0.90
2023-05-09T13:38:49.191Z,1.20
2023-05-09T13:41:22.552Z,1.48
2023-05-09T13:43:53.119Z,1.48
2023-05-09T13:46:21.968Z,1.13
2023-05-09T13:48:50.808Z,1.27
2023-05-09T13:51:19.667Z,1.30
2023-05-09T13:53:48.648Z,1.23
2023-05-09T13:56:17.379Z,1.05
2023-05-09T13:58:46.154Z,1.17
2023-05-09T14:01:20.035Z,1.73
2023-05-09T14:03:56.149Z,0.90
2023-05-09T14:06:30.346Z,1.40
2023-05-09T14:09:00.942Z,1.40
2023-05-09T14:11:30.102Z,1.05
2023-05-09T14:13:59.044Z,0.87
2023-05-09T14:16:29.350Z,1.20
2023-05-09T14:18:58.520Z,1.10
2023-05-09T14:21:27.911Z,1.42
2023-05-09T14:23:56.787Z,1.05
2023-05-09T14:26:26.741Z,1.70
2023-05-09T14:28:56.061Z,1.25
2023-05-09T14:31:24.966Z,1.92
2023-05-09T14:33:55.217Z,1.30
2023-05-09T14:36:24.968Z,1.65
2023-05-09T14:38:53.811Z,1.30
2023-05-09T14:41:22.933Z,1.70
2023-05-09T14:43:52.359Z,1.45
2023-05-09T14:46:21.535Z,1.58
2023-05-09T14:48:50.422Z,1.13
2023-05-09T14:51:20.554Z,1.40
2023-05-09T14:53:49.272Z,1.20
2023-05-09T14:56:17.944Z,1.30
2023-05-09T14:58:46.700Z,1.25
2023-05-09T15:01:15.980Z,1.30
2023-05-09T15:03:44.736Z,1.23
2023-05-09T15:06:15.418Z,1.35
2023-05-09T15:08:46.152Z,1.00
2023-05-09T15:11:14.893Z,1.20
2023-05-09T15:13:43.529Z,1.42
2023-05-09T15:16:12.327Z,1.27
2023-05-09T15:18:45.512Z,1.30
2023-05-09T15:21:14.499Z,1.00
2023-05-09T15:23:43.217Z,1.02
2023-05-09T15:26:13.380Z,1.20
2023-05-09T15:28:44.233Z,1.10
2023-05-09T15:31:14.378Z,1.17
2023-05-09T15:33:43.262Z,1.27
2023-05-09T15:36:11.952Z,1.23
2023-05-09T15:38:40.967Z,1.13
2023-05-09T15:41:14.819Z,1.17
2023-05-09T15:43:43.690Z,2.00
2023-05-09T15:46:12.633Z,1.05
2023-05-09T15:48:41.525Z,1.20
2023-05-09T15:51:10.282Z,1.88
2023-05-09T15:53:38.932Z,1.20
2023-05-09T15:56:08.868Z,2.03
2023-05-09T15:58:42.069Z,1.63
2023-05-09T16:01:13.116Z,1.17
2023-05-09T16:03:42.338Z,0.90
2023-05-09T16:06:12.949Z,1.00
2023-05-09T16:08:41.674Z,1.55
2023-05-09T16:11:11.086Z,1.20
2023-05-09T16:13:41.203Z,1.23
2023-05-09T16:16:09.961Z,1.45
2023-05-09T16:18:38.763Z,1.30
2023-05-09T16:21:07.866Z,1.30
2023-05-09T16:23:36.623Z,1.00
2023-05-09T16:26:05.567Z,0.90
2023-05-09T16:28:34.251Z,1.30
2023-05-09T16:31:05.628Z,1.13
2023-05-09T16:33:34.426Z,1.00
2023-05-09T16:36:03.152Z,1.33
2023-05-09T16:38:31.922Z,1.40
2023-05-09T16:41:00.599Z,1.52
2023-05-09T16:43:30.728Z,1.23
2023-05-09T16:45:59.704Z,1.30
2023-05-09T16:48:29.780Z,1.38
2023-05-09T16:50:58.505Z,1.27
2023-05-09T16:53:27.989Z,1.90
2023-05-09T16:55:56.986Z,1.27
2023-05-09T16:58:25.787Z,1.23
2023-05-09T17:00:55.094Z,1.60
2023-05-09T17:03:23.984Z,1.35
2023-05-09T17:05:54.108Z,1.17
2023-05-09T17:08:23.552Z,1.30
2023-05-09T17:10:52.247Z,1.50
2023-05-09T17:13:21.337Z,1.65
2023-05-09T17:15:52.698Z,1.73
2023-05-09T17:18:33.171Z,1.65
2023-05-09T17:21:07.891Z,1.50
2023-05-09T17:23:36.571Z,1.30
2023-05-09T17:26:05.462Z,1.38
2023-05-09T17:28:34.306Z,1.20
2023-05-09T17:31:03.435Z,1.17
2023-05-09T17:33:40.047Z,1.23
2023-05-09T17:36:20.333Z,1.17
2023-05-09T17:38:57.088Z,1.42
2023-05-09T17:41:26.802Z,1.40
2023-05-09T17:43:57.369Z,1.20
2023-05-09T17:46:26.574Z,0.93
2023-05-09T17:48:55.610Z,2.03
2023-05-09T17:51:25.864Z,2.40
2023-05-09T17:53:54.591Z,1.48
2023-05-09T17:56:24.038Z,1.67
2023-05-09T17:58:53.249Z,1.50
2023-05-09T18:01:22.251Z,2.08
2023-05-09T18:03:51.077Z,1.65
2023-05-09T18:06:20.083Z,1.58
2023-05-09T18:09:03.464Z,1.48
2023-05-09T18:11:41.106Z,1.50
2023-05-09T18:14:17.311Z,1.58
2023-05-09T18:16:53.488Z,1.92
2023-05-09T18:19:31.034Z,1.48
2023-05-09T18:22:00.063Z,1.55
2023-05-09T18:24:30.266Z,2.40
2023-05-09T18:26:58.994Z,1.35
2023-05-09T18:29:27.738Z,1.40
2023-05-09T18:31:56.732Z,1.30
2023-05-09T18:34:28.208Z,1.35
2023-05-09T18:36:57.849Z,1.40
2023-05-09T18:39:26.539Z,1.48
2023-05-09T18:41:56.797Z,1.48
2023-05-09T18:44:25.534Z,1.65
2023-05-09T18:46:54.675Z,2.38
2023-05-09T18:49:26.008Z,1.90
2023-05-09T18:51:56.323Z,2.13
2023-05-09T18:54:25.057Z,1.50
2023-05-09T18:56:55.140Z,1.58
2023-05-09T18:59:23.809Z,1.35
2023-05-09T19:01:53.204Z,1.60
2023-05-09T19:04:22.096Z,1.52
2023-05-09T19:06:51.191Z,1.63
2023-05-09T19:09:19.902Z,1.45
2023-05-09T19:11:48.797Z,1.45
2023-05-09T19:14:19.456Z,2.30
2023-05-09T19:16:48.287Z,1.55
2023-05-09T19:19:17.092Z,1.63
2023-05-09T19:21:45.803Z,1.40
2023-05-09T19:24:14.488Z,1.75
2023-05-09T19:26:43.130Z,2.40
2023-05-09T19:29:11.813Z,2.10
2023-05-09T19:31:42.010Z,2.10
2023-05-09T19:34:10.680Z,2.08
2023-05-09T19:36:39.368Z,2.10
2023-05-09T19:39:09.044Z,2.27
2023-05-09T19:41:37.773Z,2.75
2023-05-09T19:44:08.095Z,2.97
2023-05-09T19:46:38.586Z,3.97
2023-05-09T19:49:09.175Z,3.55
2023-05-09T19:51:37.932Z,2.67
2023-05-09T19:54:06.706Z,2.83
2023-05-09T19:56:35.436Z,2.85
2023-05-09T19:59:04.584Z,2.13
2023-05-09T20:01:33.273Z,2.65
2023-05-09T20:04:02.055Z,2.50
2023-05-09T20:06:32.200Z,3.00
2023-05-09T20:09:00.905Z,2.80
2023-05-09T20:11:29.576Z,2.67
2023-05-09T20:13:58.425Z,2.50
2023-05-09T20:16:30.184Z,3.10
2023-05-09T20:18:59.420Z,3.05
2023-05-09T20:21:28.094Z,2.50
2023-05-09T20:23:58.210Z,2.88
2023-05-09T20:26:28.255Z,2.88
2023-05-09T20:29:01.416Z,2.53
2023-05-09T20:31:30.253Z,2.90
2023-05-09T20:34:00.331Z,3.63
2023-05-09T20:36:29.733Z,2.78
2023-05-09T20:38:59.796Z,2.60
2023-05-09T20:41:28.493Z,3.00
2023-05-09T20:44:03.521Z,2.70
2023-05-09T20:46:32.211Z,3.10
2023-05-09T20:49:00.828Z,3.53
2023-05-09T20:51:29.461Z,2.90
2023-05-09T20:53:59.620Z,3.40
2023-05-09T20:56:29.600Z,3.65
2023-05-09T20:59:00.987Z,3.88
2023-05-09T21:01:31.996Z,3.60
2023-05-09T21:04:01.249Z,3.58
2023-05-09T21:06:30.179Z,4.70
2023-05-09T21:09:00.425Z,3.95
2023-05-09T21:11:29.248Z,3.67
2023-05-09T21:13:58.180Z,4.43
2023-05-09T21:16:28.258Z,4.30
2023-05-09T21:18:58.004Z,5.17
2023-05-09T21:21:27.852Z,4.80
2023-05-09T21:23:56.485Z,6.30
2023-05-09T21:26:26.634Z,5.85
2023-05-09T21:28:55.509Z,5.47
2023-05-09T21:31:24.333Z,5.37
2023-05-09T21:33:53.103Z,5.60
2023-05-09T21:36:21.766Z,4.57
2023-05-09T21:38:50.957Z,5.70
2023-05-09T21:41:21.958Z,4.90
2023-05-09T21:43:52.705Z,5.70
2023-05-09T21:46:21.411Z,6.13
2023-05-09T21:48:50.489Z,5.32
2023-05-09T21:51:19.190Z,5.95
2023-05-09T21:53:47.904Z,5.68
2023-05-09T21:56:16.634Z,6.50
2023-05-09T21:58:45.420Z,5.90
2023-05-09T22:01:17.951Z,6.45
2023-05-09T22:03:47.195Z,5.85
2023-05-09T22:06:16.027Z,6.32
2023-05-09T22:08:44.759Z,5.90
2023-05-09T22:11:14.951Z,6.25
2023-05-09T22:13:44.095Z,5.72
2023-05-09T22:16:14.479Z,6.20
2023-05-09T22:18:43.433Z,6.53
2023-05-09T22:21:12.767Z,5.87
2023-05-09T22:23:41.438Z,6.75
2023-05-09T22:26:10.182Z,5.82
2023-05-09T22:28:39.148Z,5.75
2023-05-09T22:31:08.170Z,6.35
2023-05-09T22:33:38.262Z,5.43
2023-05-09T22:36:08.133Z,6.60
2023-05-09T22:38:36.976Z,7.07
2023-05-09T22:41:05.702Z,7.10
2023-05-09T22:43:39.194Z,6.72
2023-05-09T22:46:08.781Z,6.27
2023-05-09T22:48:38.858Z,6.07
2023-05-09T22:51:07.723Z,6.35
2023-05-09T22:53:36.413Z,5.63
2023-05-09T22:56:05.785Z,6.60
2023-05-09T22:58:34.534Z,5.63
2023-05-09T23:01:03.411Z,5.57
2023-05-09T23:03:32.321Z,5.57
2023-05-09T23:06:03.280Z,5.72
2023-05-09T23:08:32.056Z,5.03
2023-05-09T23:11:00.810Z,5.67
2023-05-09T23:13:29.670Z,5.22
2023-05-09T23:15:58.564Z,5.22
2023-05-09T23:18:28.077Z,5.38
2023-05-09T23:20:56.789Z,5.72
2023-05-09T23:23:26.930Z,4.43
2023-05-09T23:25:55.714Z,5.05
2023-05-09T23:28:25.355Z,4.65
2023-05-09T23:30:55.571Z,4.32
2023-05-09T23:33:24.354Z,4.30
2023-05-09T23:35:53.047Z,4.80
2023-05-09T23:38:22.601Z,3.88
2023-05-09T23:40:56.160Z,4.53
2023-05-09T23:43:25.227Z,4.40
2023-05-09T23:45:54.021Z,4.68
2023-05-09T23:48:22.817Z,4.03
2023-05-09T23:50:51.881Z,5.38
2023-05-09T23:53:20.808Z,5.65
2023-05-09T23:55:49.855Z,5.53
2023-05-09T23:58:19.924Z,5.88
